sensor_id;sensor_type;location;lat;lon;timestamp;pressure;altitude;pressure_sealevel;temperature;humidity
21753;BME280;11038;50.940;20.564;2022-07-09T00:01:26;98394.22;;;13.23;100.00
21753;BME280;11038;50.940;20.564;2022-07-09T00:02:59;98397.56;;;13.25;100.00
21753;BME280;11038;50.940;20.564;2022-07-09T00:04:31;98400.25;;;13.25;100.00
21753;BME280;11038;50.940;20.564;2022-07-09T00:06:03;98400.91;;;13.27;100.00
21753;BME280;11038;50.940;20.564;2022-07-09T00:07:36;98408.28;;;13.25;100.00
21753;BME280;11038;50.940;20.564;2022-07-09T00:09:08;98409.66;;;13.29;100.00
21753;BME280;11038;50.940;20.564;2022-07-09T00:10:40;98408.28;;;13.25;100.00
21753;BME280;11038;50.940;20.564;2022-07-09T00:12:12;98417.69;;;13.29;100.00
21753;BME280;11038;50.940;20.564;2022-07-09T00:13:45;98409.66;;;13.29;100.00
21753;BME280;11038;50.940;20.564;2022-07-09T00:15:17;98407.63;;;13.31;100.00
21753;BME280;11038;50.940;20.564;2022-07-09T00:16:49;98412.81;;;13.33;100.00
21753;BME280;11038;50.940;20.564;2022-07-09T00:18:21;98408.28;;;13.33;100.00
21753;BME280;11038;50.940;20.564;2022-07-09T00:19:54;98409.97;;;13.34;100.00
21753;BME280;11038;50.940;20.564;2022-07-09T00:21:26;98402.75;;;13.35;100.00
21753;BME280;11038;50.940;20.564;2022-07-09T00:22:58;98405.25;;;13.36;100.00
21753;BME280;11038;50.940;20.564;2022-07-09T00:24:31;98406.44;;;13.34;100.00
21753;BME280;11038;50.940;20.564;2022-07-09T00:26:03;98411.63;;;13.35;100.00
21753;BME280;11038;50.940;20.564;2022-07-09T00:27:36;98399.88;;;13.36;100.00
21753;BME280;11038;50.940;20.564;2022-07-09T00:29:08;98403.22;;;13.38;100.00
21753;BME280;11038;50.940;20.564;2022-07-09T00:30:40;98399.88;;;13.36;100.00
21753;BME280;11038;50.940;20.564;2022-07-09T00:32:13;98406.94;;;13.37;100.00
21753;BME280;11038;50.940;20.564;2022-07-09T00:33:45;98403.41;;;13.37;100.00
21753;BME280;11038;50.940;20.564;2022-07-09T00:35:17;98406.94;;;13.37;100.00
21753;BME280;11038;50.940;20.564;2022-07-09T00:36:50;98396.22;;;13.37;100.00
21753;BME280;11038;50.940;20.564;2022-07-09T00:38:22;98400.72;;;13.37;100.00
21753;BME280;11038;50.940;20.564;2022-07-09T00:39:54;98396.03;;;13.39;100.00
21753;BME280;11038;50.940;20.564;2022-07-09T00:41:27;98402.03;;;13.41;100.00
21753;BME280;11038;50.940;20.564;2022-07-09T00:42:59;98410.28;;;13.39;100.00
21753;BME280;11038;50.940;20.564;2022-07-09T00:44:32;98400.19;;;13.42;100.00
21753;BME280;11038;50.940;20.564;2022-07-09T00:46:04;98401.88;;;13.43;100.00
21753;BME280;11038;50.940;20.564;2022-07-09T00:47:36;98404.56;;;13.43;100.00
21753;BME280;11038;50.940;20.564;2022-07-09T00:49:08;98405.56;;;13.42;100.00
21753;BME280;11038;50.940;20.564;2022-07-09T00:50:42;98402.88;;;13.42;100.00
21753;BME280;11038;50.940;20.564;2022-07-09T00:52:15;98401.03;;;13.42;100.00
21753;BME280;11038;50.940;20.564;2022-07-09T00:53:49;98404.38;;;13.44;100.00
21753;BME280;11038;50.940;20.564;2022-07-09T00:55:22;98399.88;;;13.45;100.00
21753;BME280;11038;50.940;20.564;2022-07-09T00:56:54;98399.88;;;13.45;100.00
21753;BME280;11038;50.940;20.564;2022-07-09T00:58:27;98402.34;;;13.46;100.00
21753;BME280;11038;50.940;20.564;2022-07-09T01:00:00;98401.69;;;13.44;100.00
21753;BME280;11038;50.940;20.564;2022-07-09T01:01:32;98401.53;;;13.46;100.00
21753;BME280;11038;50.940;20.564;2022-07-09T01:03:04;98394.16;;;13.48;100.00
21753;BME280;11038;50.940;20.564;2022-07-09T01:04:37;98402.19;;;13.48;100.00
21753;BME280;11038;50.940;20.564;2022-07-09T01:06:11;98402.19;;;13.48;100.00
21753;BME280;11038;50.940;20.564;2022-07-09T01:07:43;98399.34;;;13.49;100.00
21753;BME280;11038;50.940;20.564;2022-07-09T01:09:15;98400.19;;;13.50;100.00
21753;BME280;11038;50.940;20.564;2022-07-09T01:10:48;98391.13;;;13.51;100.00
21753;BME280;11038;50.940;20.564;2022-07-09T01:12:22;98399.19;;;13.51;100.00
21753;BME280;11038;50.940;20.564;2022-07-09T01:13:54;98393.81;;;13.51;100.00
21753;BME280;11038;50.940;20.564;2022-07-09T01:15:27;98389.44;;;13.50;100.00
21753;BME280;11038;50.940;20.564;2022-07-09T01:17:00;98391.13;;;13.51;100.00
21753;BME280;11038;50.940;20.564;2022-07-09T01:18:33;98393.63;;;13.53;100.00
21753;BME280;11038;50.940;20.564;2022-07-09T01:20:06;98391.94;;;13.51;100.00
21753;BME280;11038;50.940;20.564;2022-07-09T01:21:39;98384.56;;;13.54;100.00
21753;BME280;11038;50.940;20.564;2022-07-09T01:23:11;98391.13;;;13.51;100.00
21753;BME280;11038;50.940;20.564;2022-07-09T01:24:43;98386.09;;;13.48;100.00
21753;BME280;11038;50.940;20.564;2022-07-09T01:26:17;98382.22;;;13.50;100.00
21753;BME280;11038;50.940;20.564;2022-07-09T01:27:51;98391.13;;;13.51;100.00
21753;BME280;11038;50.940;20.564;2022-07-09T01:29:23;98381.19;;;13.51;100.00
21753;BME280;11038;50.940;20.564;2022-07-09T01:30:56;98387.41;;;13.52;100.00
21753;BME280;11038;50.940;20.564;2022-07-09T01:32:28;98386.75;;;13.50;100.00
21753;BME280;11038;50.940;20.564;2022-07-09T01:34:00;98387.59;;;13.50;100.00
21753;BME280;11038;50.940;20.564;2022-07-09T01:35:33;98386.75;;;13.50;100.00
21753;BME280;11038;50.940;20.564;2022-07-09T01:37:06;98383.22;;;13.49;100.00
21753;BME280;11038;50.940;20.564;2022-07-09T01:38:38;98385.91;;;13.49;100.00
21753;BME280;11038;50.940;20.564;2022-07-09T01:40:11;98383.88;;;13.51;100.00
21753;BME280;11038;50.940;20.564;2022-07-09T01:41:43;98372.50;;;13.49;100.00
21753;BME280;11038;50.940;20.564;2022-07-09T01:43:16;98378.69;;;13.50;100.00
21753;BME280;11038;50.940;20.564;2022-07-09T01:44:48;98375.03;;;13.51;100.00
21753;BME280;11038;50.940;20.564;2022-07-09T01:46:21;98373.34;;;13.50;100.00
21753;BME280;11038;50.940;20.564;2022-07-09T01:47:53;98380.72;;;13.48;100.00
21753;BME280;11038;50.940;20.564;2022-07-09T01:49:25;98378.69;;;13.50;100.00
21753;BME280;11038;50.940;20.564;2022-07-09T01:50:57;98379.34;;;13.52;100.00
21753;BME280;11038;50.940;20.564;2022-07-09T01:52:31;98377.00;;;13.49;100.00
21753;BME280;11038;50.940;20.564;2022-07-09T01:54:03;98374.69;;;13.46;100.00
21753;BME280;11038;50.940;20.564;2022-07-09T01:55:36;98377.84;;;13.49;100.00
21753;BME280;11038;50.940;20.564;2022-07-09T01:57:08;98371.84;;;13.47;100.00
21753;BME280;11038;50.940;20.564;2022-07-09T01:58:41;98373.69;;;13.47;100.00
21753;BME280;11038;50.940;20.564;2022-07-09T02:00:13;98371.34;;;13.44;100.00
21753;BME280;11038;50.940;20.564;2022-07-09T02:01:45;98368.66;;;13.44;100.00
21753;BME280;11038;50.940;20.564;2022-07-09T02:03:17;98372.19;;;13.44;100.00
21753;BME280;11038;50.940;20.564;2022-07-09T02:04:50;98365.81;;;13.45;100.00
21753;BME280;11038;50.940;20.564;2022-07-09T02:06:23;98366.16;;;13.42;100.00
21753;BME280;11038;50.940;20.564;2022-07-09T02:07:55;98360.59;;;13.44;100.00
21753;BME280;11038;50.940;20.564;2022-07-09T02:09:27;98359.59;;;13.45;100.00
21753;BME280;11038;50.940;20.564;2022-07-09T02:11:00;98362.94;;;13.47;100.00
21753;BME280;11038;50.940;20.564;2022-07-09T02:12:32;98356.72;;;13.46;100.00
21753;BME280;11038;50.940;20.564;2022-07-09T02:14:04;98361.28;;;13.46;100.00
21753;BME280;11038;50.940;20.564;2022-07-09T02:15:36;98356.56;;;13.48;100.00
21753;BME280;11038;50.940;20.564;2022-07-09T02:17:10;98355.91;;;13.46;100.00
21753;BME280;11038;50.940;20.564;2022-07-09T02:18:43;98356.72;;;13.46;100.00
21753;BME280;11038;50.940;20.564;2022-07-09T02:20:15;98354.03;;;13.46;100.00
21753;BME280;11038;50.940;20.564;2022-07-09T02:21:47;98353.88;;;13.48;100.00
21753;BME280;11038;50.940;20.564;2022-07-09T02:23:22;98348.88;;;13.45;100.00
21753;BME280;11038;50.940;20.564;2022-07-09T02:24:55;98351.34;;;13.46;100.00
21753;BME280;11038;50.940;20.564;2022-07-09T02:26:28;98354.22;;;13.45;100.00
21753;BME280;11038;50.940;20.564;2022-07-09T02:28:01;98345.19;;;13.46;100.00
21753;BME280;11038;50.940;20.564;2022-07-09T02:29:33;98343.50;;;13.45;100.00
21753;BME280;11038;50.940;20.564;2022-07-09T02:31:05;98349.38;;;13.48;100.00
21753;BME280;11038;50.940;20.564;2022-07-09T02:32:38;98339.97;;;13.44;100.00
21753;BME280;11038;50.940;20.564;2022-07-09T02:34:11;98337.13;;;13.46;100.00
21753;BME280;11038;50.940;20.564;2022-07-09T02:35:43;98340.16;;;13.43;100.00
21753;BME280;11038;50.940;20.564;2022-07-09T02:37:16;98333.94;;;13.42;100.00
21753;BME280;11038;50.940;20.564;2022-07-09T02:38:48;98344.88;;;13.41;100.00
21753;BME280;11038;50.940;20.564;2022-07-09T02:40:20;98344.34;;;13.45;100.00
21753;BME280;11038;50.940;20.564;2022-07-09T02:41:53;98345.53;;;13.43;100.00
21753;BME280;11038;50.940;20.564;2022-07-09T02:43:25;98342.50;;;13.46;100.00
21753;BME280;11038;50.940;20.564;2022-07-09T02:44:58;98343.50;;;13.45;100.00
21753;BME280;11038;50.940;20.564;2022-07-09T02:46:30;98344.34;;;13.45;100.00
21753;BME280;11038;50.940;20.564;2022-07-09T02:48:02;98347.19;;;13.44;100.00
21753;BME280;11038;50.940;20.564;2022-07-09T02:49:34;98348.38;;;13.41;100.00
21753;BME280;11038;50.940;20.564;2022-07-09T02:51:07;98347.72;;;13.39;100.00
21753;BME280;11038;50.940;20.564;2022-07-09T02:52:39;98345.69;;;13.41;100.00
21753;BME280;11038;50.940;20.564;2022-07-09T02:54:11;98343.19;;;13.39;100.00
21753;BME280;11038;50.940;20.564;2022-07-09T02:55:44;98345.88;;;13.39;100.00
21753;BME280;11038;50.940;20.564;2022-07-09T02:57:17;98349.53;;;13.38;100.00
21753;BME280;11038;50.940;20.564;2022-07-09T02:58:49;98345.03;;;13.39;100.00
21753;BME280;11038;50.940;20.564;2022-07-09T03:00:21;98342.19;;;13.41;100.00
21753;BME280;11038;50.940;20.564;2022-07-09T03:01:54;98340.50;;;13.39;100.00
21753;BME280;11038;50.940;20.564;2022-07-09T03:03:26;98341.34;;;13.40;100.00
21753;BME280;11038;50.940;20.564;2022-07-09T03:04:59;98341.50;;;13.38;100.00
21753;BME280;11038;50.940;20.564;2022-07-09T03:06:32;98333.94;;;13.42;100.00
21753;BME280;11038;50.940;20.564;2022-07-09T03:08:04;98343.19;;;13.39;100.00
21753;BME280;11038;50.940;20.564;2022-07-09T03:09:37;98339.50;;;13.41;100.00
21753;BME280;11038;50.940;20.564;2022-07-09T03:11:09;98336.47;;;13.35;100.00
21753;BME280;11038;50.940;20.564;2022-07-09T03:12:42;98335.13;;;13.39;100.00
21753;BME280;11038;50.940;20.564;2022-07-09T03:14:14;98341.34;;;13.40;100.00
21753;BME280;11038;50.940;20.564;2022-07-09T03:15:46;98337.81;;;13.39;100.00
21753;BME280;11038;50.940;20.564;2022-07-09T03:17:18;98336.63;;;13.42;100.00
21753;BME280;11038;50.940;20.564;2022-07-09T03:18:51;98337.13;;;13.46;100.00
21753;BME280;11038;50.940;20.564;2022-07-09T03:20:23;98335.44;;;13.45;100.00
21753;BME280;11038;50.940;20.564;2022-07-09T03:21:56;98341.47;;;13.47;100.00
21753;BME280;11038;50.940;20.564;2022-07-09T03:23:28;98337.78;;;13.48;100.00
21753;BME280;11038;50.940;20.564;2022-07-09T03:25:00;98349.38;;;13.48;100.00
21753;BME280;11038;50.940;20.564;2022-07-09T03:26:32;98345.50;;;13.51;100.00
21753;BME280;11038;50.940;20.564;2022-07-09T03:28:05;98340.78;;;13.53;100.00
21753;BME280;11038;50.940;20.564;2022-07-09T03:29:37;98349.47;;;13.55;100.00
21753;BME280;11038;50.940;20.564;2022-07-09T03:31:10;98348.63;;;13.55;100.00
21753;BME280;11038;50.940;20.564;2022-07-09T03:32:42;98345.81;;;13.56;100.00
21753;BME280;11038;50.940;20.564;2022-07-09T03:34:14;98337.06;;;13.63;100.00
21753;BME280;11038;50.940;20.564;2022-07-09T03:35:46;98339.53;;;13.72;100.00
21753;BME280;11038;50.940;20.564;2022-07-09T03:37:19;98339.66;;;13.79;100.00
21753;BME280;11038;50.940;20.564;2022-07-09T03:38:52;98336.63;;;13.82;100.00
21753;BME280;11038;50.940;20.564;2022-07-09T03:40:24;98338.59;;;13.89;100.00
21753;BME280;11038;50.940;20.564;2022-07-09T03:41:56;98335.72;;;13.90;100.00
21753;BME280;11038;50.940;20.564;2022-07-09T03:43:28;98337.72;;;13.97;100.00
21753;BME280;11038;50.940;20.564;2022-07-09T03:45:00;98337.53;;;13.98;100.00
21753;BME280;11038;50.940;20.564;2022-07-09T03:46:33;98333.47;;;14.02;100.00
21753;BME280;11038;50.940;20.564;2022-07-09T03:48:06;98331.44;;;14.04;100.00
21753;BME280;11038;50.940;20.564;2022-07-09T03:49:39;98331.09;;;14.08;100.00
21753;BME280;11038;50.940;20.564;2022-07-09T03:51:11;98337.78;;;14.12;100.00
21753;BME280;11038;50.940;20.564;2022-07-09T03:52:43;98338.81;;;14.11;100.00
21753;BME280;11038;50.940;20.564;2022-07-09T03:54:15;98334.06;;;14.13;100.00
21753;BME280;11038;50.940;20.564;2022-07-09T03:55:48;98334.22;;;14.20;100.00
21753;BME280;11038;50.940;20.564;2022-07-09T03:57:20;98327.66;;;14.22;100.00
21753;BME280;11038;50.940;20.564;2022-07-09T03:58:52;98337.00;;;14.26;100.00
21753;BME280;11038;50.940;20.564;2022-07-09T04:00:24;98333.47;;;14.26;100.00
21753;BME280;11038;50.940;20.564;2022-07-09T04:01:57;98326.91;;;14.28;100.00
21753;BME280;11038;50.940;20.564;2022-07-09T04:03:30;98320.25;;;14.39;100.00
21753;BME280;11038;50.940;20.564;2022-07-09T04:05:03;98310.28;;;14.48;100.00
21753;BME280;11038;50.940;20.564;2022-07-09T04:06:35;98316.59;;;14.56;100.00
21753;BME280;11038;50.940;20.564;2022-07-09T04:08:07;98313.59;;;14.74;100.00
21753;BME280;11038;50.940;20.564;2022-07-09T04:09:40;98323.41;;;14.82;100.00
21753;BME280;11038;50.940;20.564;2022-07-09T04:11:12;98323.94;;;15.01;100.00
21753;BME280;11038;50.940;20.564;2022-07-09T04:12:45;98323.91;;;15.31;100.00
21753;BME280;11038;50.940;20.564;2022-07-09T04:14:17;98334.38;;;15.56;100.00
21753;BME280;11038;50.940;20.564;2022-07-09T04:15:51;98334.03;;;15.81;100.00
21753;BME280;11038;50.940;20.564;2022-07-09T04:17:23;98326.47;;;16.07;100.00
21753;BME280;11038;50.940;20.564;2022-07-09T04:18:56;98336.28;;;16.37;100.00
21753;BME280;11038;50.940;20.564;2022-07-09T04:20:28;98341.00;;;16.57;99.42
21753;BME280;11038;50.940;20.564;2022-07-09T04:22:00;98327.31;;;16.58;98.18
21753;BME280;11038;50.940;20.564;2022-07-09T04:23:34;98329.72;;;16.75;97.36
21753;BME280;11038;50.940;20.564;2022-07-09T04:25:06;98335.44;;;16.87;95.90
21753;BME280;11038;50.940;20.564;2022-07-09T04:26:39;98323.03;;;16.93;94.80
21753;BME280;11038;50.940;20.564;2022-07-09T04:28:11;98329.03;;;16.95;93.36
21753;BME280;11038;50.940;20.564;2022-07-09T04:29:43;98318.84;;;16.90;92.20
21753;BME280;11038;50.940;20.564;2022-07-09T04:31:16;98333.44;;;16.96;91.53
21753;BME280;11038;50.940;20.564;2022-07-09T04:32:50;98326.75;;;16.92;90.75
21753;BME280;11038;50.940;20.564;2022-07-09T04:34:22;98334.22;;;16.97;90.03
21753;BME280;11038;50.940;20.564;2022-07-09T04:35:54;98334.06;;;16.98;89.71
21753;BME280;11038;50.940;20.564;2022-07-09T04:37:26;98328.69;;;17.05;89.08
21753;BME280;11038;50.940;20.564;2022-07-09T04:38:59;98331.47;;;17.19;88.75
21753;BME280;11038;50.940;20.564;2022-07-09T04:40:31;98336.25;;;17.17;88.01
21753;BME280;11038;50.940;20.564;2022-07-09T04:42:03;98335.78;;;17.13;87.60
21753;BME280;11038;50.940;20.564;2022-07-09T04:43:36;98336.63;;;17.13;87.13
21753;BME280;11038;50.940;20.564;2022-07-09T04:45:09;98333.16;;;17.20;86.57
21753;BME280;11038;50.940;20.564;2022-07-09T04:46:42;98339.13;;;17.15;85.97
21753;BME280;11038;50.940;20.564;2022-07-09T04:48:15;98338.97;;;17.17;86.04
21753;BME280;11038;50.940;20.564;2022-07-09T04:49:47;98333.56;;;17.17;86.16
21753;BME280;11038;50.940;20.564;2022-07-09T04:51:20;98342.41;;;17.10;85.88
21753;BME280;11038;50.940;20.564;2022-07-09T04:52:52;98342.31;;;16.97;85.50
21753;BME280;11038;50.940;20.564;2022-07-09T04:54:24;98334.19;;;16.90;85.41
21753;BME280;11038;50.940;20.564;2022-07-09T04:55:57;98345.25;;;16.95;85.82
21753;BME280;11038;50.940;20.564;2022-07-09T04:57:29;98346.50;;;16.70;85.63
21753;BME280;11038;50.940;20.564;2022-07-09T04:59:01;98345.91;;;16.75;85.87
21753;BME280;11038;50.940;20.564;2022-07-09T05:00:35;98332.44;;;16.75;85.96
21753;BME280;11038;50.940;20.564;2022-07-09T05:02:07;98334.88;;;16.70;86.08
21753;BME280;11038;50.940;20.564;2022-07-09T05:03:40;98340.25;;;16.63;86.22
21753;BME280;11038;50.940;20.564;2022-07-09T05:05:12;98340.66;;;16.67;86.04
21753;BME280;11038;50.940;20.564;2022-07-09T05:06:45;98336.06;;;16.60;86.25
21753;BME280;11038;50.940;20.564;2022-07-09T05:08:18;98339.44;;;16.69;86.45
21753;BME280;11038;50.940;20.564;2022-07-09T05:09:50;98344.59;;;16.64;86.22
21753;BME280;11038;50.940;20.564;2022-07-09T05:11:22;98348.72;;;16.60;86.32
21753;BME280;11038;50.940;20.564;2022-07-09T05:12:54;98354.16;;;16.67;86.34
21753;BME280;11038;50.940;20.564;2022-07-09T05:14:27;98354.13;;;16.60;86.39
21753;BME280;11038;50.940;20.564;2022-07-09T05:15:59;98351.84;;;16.64;86.32
21753;BME280;11038;50.940;20.564;2022-07-09T05:17:36;98353.88;;;16.55;86.75
21753;BME280;11038;50.940;20.564;2022-07-09T05:19:09;98356.94;;;16.52;86.86
21753;BME280;11038;50.940;20.564;2022-07-09T05:20:41;98356.94;;;16.52;86.91
21753;BME280;11038;50.940;20.564;2022-07-09T05:22:15;98348.53;;;16.18;87.63
21753;BME280;11038;50.940;20.564;2022-07-09T05:23:47;98355.16;;;16.37;87.98
21753;BME280;11038;50.940;20.564;2022-07-09T05:25:20;98350.13;;;16.56;88.14
21753;BME280;11038;50.940;20.564;2022-07-09T05:26:52;98348.63;;;16.75;87.94
21753;BME280;11038;50.940;20.564;2022-07-09T05:28:24;98345.25;;;17.02;87.57
21753;BME280;11038;50.940;20.564;2022-07-09T05:29:57;98343.06;;;17.12;87.22
21753;BME280;11038;50.940;20.564;2022-07-09T05:31:29;98338.16;;;17.23;87.49
21753;BME280;11038;50.940;20.564;2022-07-09T05:33:08;98341.91;;;17.64;87.00
21753;BME280;11038;50.940;20.564;2022-07-09T05:34:40;98336.38;;;18.00;86.45
21753;BME280;11038;50.940;20.564;2022-07-09T05:36:12;98336.06;;;18.37;85.00
21753;BME280;11038;50.940;20.564;2022-07-09T05:37:45;98339.38;;;18.80;83.87
21753;BME280;11038;50.940;20.564;2022-07-09T05:39:18;98328.34;;;18.75;80.31
21753;BME280;11038;50.940;20.564;2022-07-09T05:40:50;98337.59;;;19.40;79.36
21753;BME280;11038;50.940;20.564;2022-07-09T05:42:22;98328.31;;;19.75;77.17
21753;BME280;11038;50.940;20.564;2022-07-09T05:43:55;98330.19;;;20.14;75.39
21753;BME280;11038;50.940;20.564;2022-07-09T05:45:27;98328.44;;;20.27;73.96
21753;BME280;11038;50.940;20.564;2022-07-09T05:47:00;98328.25;;;20.54;73.31
21753;BME280;11038;50.940;20.564;2022-07-09T05:48:33;98331.00;;;20.73;72.30
21753;BME280;11038;50.940;20.564;2022-07-09T05:50:06;98333.34;;;20.88;70.91
21753;BME280;11038;50.940;20.564;2022-07-09T05:51:39;98326.19;;;20.94;69.84
21753;BME280;11038;50.940;20.564;2022-07-09T05:53:11;98330.75;;;21.00;68.47
21753;BME280;11038;50.940;20.564;2022-07-09T05:54:43;98324.22;;;21.08;68.33
21753;BME280;11038;50.940;20.564;2022-07-09T05:56:16;98331.31;;;21.09;67.82
21753;BME280;11038;50.940;20.564;2022-07-09T05:57:48;98328.66;;;21.02;67.60
21753;BME280;11038;50.940;20.564;2022-07-09T05:59:20;98328.44;;;20.78;67.34
21753;BME280;11038;50.940;20.564;2022-07-09T06:00:53;98329.78;;;20.68;67.41
21753;BME280;11038;50.940;20.564;2022-07-09T06:02:25;98330.25;;;20.65;67.74
21753;BME280;11038;50.940;20.564;2022-07-09T06:03:57;98327.16;;;20.55;67.85
21753;BME280;11038;50.940;20.564;2022-07-09T06:05:30;98330.63;;;20.43;67.81
21753;BME280;11038;50.940;20.564;2022-07-09T06:07:02;98327.50;;;20.40;68.32
21753;BME280;11038;50.940;20.564;2022-07-09T06:08:35;98324.06;;;20.26;68.49
21753;BME280;11038;50.940;20.564;2022-07-09T06:10:08;98326.00;;;20.18;68.88
21753;BME280;11038;50.940;20.564;2022-07-09T06:11:41;98322.94;;;20.01;69.34
21753;BME280;11038;50.940;20.564;2022-07-09T06:13:13;98324.81;;;20.00;69.71
21753;BME280;11038;50.940;20.564;2022-07-09T06:14:45;98321.94;;;19.95;69.79
21753;BME280;11038;50.940;20.564;2022-07-09T06:16:17;98318.63;;;19.86;70.19
21753;BME280;11038;50.940;20.564;2022-07-09T06:17:50;98316.59;;;19.82;70.14
21753;BME280;11038;50.940;20.564;2022-07-09T06:19:23;98314.13;;;19.73;70.19
21753;BME280;11038;50.940;20.564;2022-07-09T06:20:55;98313.28;;;19.73;70.85
21753;BME280;11038;50.940;20.564;2022-07-09T06:22:27;98314.78;;;19.68;70.91
21753;BME280;11038;50.940;20.564;2022-07-09T06:23:59;98314.38;;;19.65;71.27
21753;BME280;11038;50.940;20.564;2022-07-09T06:25:31;98313.75;;;19.63;71.49
21753;BME280;11038;50.940;20.564;2022-07-09T06:27:04;98321.69;;;19.64;71.95
21753;BME280;11038;50.940;20.564;2022-07-09T06:28:37;98316.66;;;19.68;72.09
21753;BME280;11038;50.940;20.564;2022-07-09T06:30:10;98313.34;;;19.66;72.35
21753;BME280;11038;50.940;20.564;2022-07-09T06:31:42;98316.66;;;19.68;72.65
21753;BME280;11038;50.940;20.564;2022-07-09T06:33:15;98315.63;;;19.69;72.92
21753;BME280;11038;50.940;20.564;2022-07-09T06:34:47;98315.44;;;19.64;73.25
21753;BME280;11038;50.940;20.564;2022-07-09T06:36:19;98307.38;;;19.50;73.17
21753;BME280;11038;50.940;20.564;2022-07-09T06:37:52;98313.81;;;19.56;73.01
21753;BME280;11038;50.940;20.564;2022-07-09T06:39:25;98315.84;;;19.61;72.81
21753;BME280;11038;50.940;20.564;2022-07-09T06:41:15;98312.50;;;19.65;72.81
21753;BME280;11038;50.940;20.564;2022-07-09T06:42:47;98313.34;;;19.59;72.67
21753;BME280;11038;50.940;20.564;2022-07-09T06:44:20;98305.63;;;19.63;72.74
21753;BME280;11038;50.940;20.564;2022-07-09T06:45:52;98308.75;;;19.66;72.55
21753;BME280;11038;50.940;20.564;2022-07-09T06:47:25;98307.91;;;19.66;72.80
21753;BME280;11038;50.940;20.564;2022-07-09T06:48:58;98314.59;;;19.63;72.28
21753;BME280;11038;50.940;20.564;2022-07-09T06:50:30;98306.94;;;19.53;71.79
21753;BME280;11038;50.940;20.564;2022-07-09T06:52:03;98307.19;;;19.45;71.49
21753;BME280;11038;50.940;20.564;2022-07-09T06:53:35;98308.81;;;19.53;71.30
21753;BME280;11038;50.940;20.564;2022-07-09T06:55:09;98310.88;;;19.57;71.33
21753;BME280;11038;50.940;20.564;2022-07-09T06:56:42;98313.22;;;19.47;71.29
21753;BME280;11038;50.940;20.564;2022-07-09T06:58:14;98302.78;;;19.44;71.12
21753;BME280;11038;50.940;20.564;2022-07-09T06:59:46;98301.75;;;19.45;71.39
21753;BME280;11038;50.940;20.564;2022-07-09T07:01:19;98300.94;;;19.44;71.46
21753;BME280;11038;50.940;20.564;2022-07-09T07:02:51;98308.63;;;19.47;71.43
21753;BME280;11038;50.940;20.564;2022-07-09T07:04:23;98296.97;;;19.47;71.90
21753;BME280;11038;50.940;20.564;2022-07-09T07:05:57;98303.41;;;19.46;71.55
21753;BME280;11038;50.940;20.564;2022-07-09T07:07:29;98303.22;;;19.41;70.73
21753;BME280;11038;50.940;20.564;2022-07-09T07:09:01;98301.31;;;19.48;70.47
21753;BME280;11038;50.940;20.564;2022-07-09T07:10:34;98302.78;;;19.44;69.97
21753;BME280;11038;50.940;20.564;2022-07-09T07:12:14;98301.75;;;19.45;69.32
21753;BME280;11038;50.940;20.564;2022-07-09T07:13:46;98295.72;;;19.43;68.66
21753;BME280;11038;50.940;20.564;2022-07-09T07:15:18;98302.56;;;19.52;68.55
21753;BME280;11038;50.940;20.564;2022-07-09T07:16:50;98300.06;;;19.51;68.67
21753;BME280;11038;50.940;20.564;2022-07-09T07:18:24;98300.06;;;19.51;68.30
21753;BME280;11038;50.940;20.564;2022-07-09T07:19:57;98302.91;;;19.63;68.56
21753;BME280;11038;50.940;20.564;2022-07-09T07:21:29;98299.13;;;19.71;68.54
21753;BME280;11038;50.940;20.564;2022-07-09T07:23:01;98300.78;;;19.72;68.61
21753;BME280;11038;50.940;20.564;2022-07-09T07:24:34;98304.72;;;19.76;68.27
21753;BME280;11038;50.940;20.564;2022-07-09T07:26:06;98291.91;;;19.57;67.89
21753;BME280;11038;50.940;20.564;2022-07-09T07:27:39;98297.84;;;19.73;68.11
21753;BME280;11038;50.940;20.564;2022-07-09T07:29:11;98306.75;;;19.87;67.98
21753;BME280;11038;50.940;20.564;2022-07-09T07:30:44;98300.91;;;19.90;67.97
21753;BME280;11038;50.940;20.564;2022-07-09T07:32:16;98303.19;;;19.87;67.60
21753;BME280;11038;50.940;20.564;2022-07-09T07:33:48;98299.88;;;19.85;67.03
21753;BME280;11038;50.940;20.564;2022-07-09T07:35:21;98297.94;;;19.92;66.41
21753;BME280;11038;50.940;20.564;2022-07-09T07:36:53;98298.59;;;19.94;66.56
21753;BME280;11038;50.940;20.564;2022-07-09T07:38:25;98297.94;;;19.99;66.48
21753;BME280;11038;50.940;20.564;2022-07-09T07:39:59;98299.31;;;20.08;66.56
21753;BME280;11038;50.940;20.564;2022-07-09T07:41:31;98292.28;;;20.00;66.56
21753;BME280;11038;50.940;20.564;2022-07-09T07:43:03;98293.69;;;20.10;66.42
21753;BME280;11038;50.940;20.564;2022-07-09T07:44:36;98296.50;;;20.29;65.98
21753;BME280;11038;50.940;20.564;2022-07-09T07:46:08;98300.88;;;20.55;65.21
21753;BME280;11038;50.940;20.564;2022-07-09T07:47:40;98299.16;;;20.61;64.53
21753;BME280;11038;50.940;20.564;2022-07-09T07:49:13;98284.31;;;21.08;64.01
21753;BME280;11038;50.940;20.564;2022-07-09T07:50:45;98285.81;;;21.23;63.59
21753;BME280;11038;50.940;20.564;2022-07-09T07:52:17;98292.97;;;21.36;62.09
21753;BME280;11038;50.940;20.564;2022-07-09T07:53:50;98298.72;;;21.77;60.62
21753;BME280;11038;50.940;20.564;2022-07-09T07:55:22;98288.34;;;22.17;59.60
21753;BME280;11038;50.940;20.564;2022-07-09T07:56:55;98290.16;;;22.48;58.19
21753;BME280;11038;50.940;20.564;2022-07-09T07:58:27;98284.47;;;22.61;56.02
21753;BME280;11038;50.940;20.564;2022-07-09T07:59:59;98284.59;;;22.54;55.92
21753;BME280;11038;50.940;20.564;2022-07-09T08:01:31;98285.41;;;22.55;55.58